Airfield :
LOGIN :

Register | Disclaimer

   EN    FR    IT 

 










Legend :    VFR   Marginal VFR   IFR   Intensive IFR   Very Intensive IFR
Visi :
Ceiling :
>= 8 km
>= 3000ft
5 to 8 km
1000 to 3000 ft
1500m to 5 km
500 to 1000 ft
800 to 1500m
200 to 500 ft
< 800m
< 200 ft
Symbols :   Thunderstorms  Fog  Heavy snow  Heavy precipitations  Wind > 20 kt
SIGMETs :     Misc.  Thunderstorms  Icing  Turbulence  Mountain Waves  Volcanic Ashes







- Airport Elevation : 122 ft
- IATA code : TXL


EDDT - Berlin Tegel Int.

CURRENT METAR :
  • 171350Z 30006KT 260V340 CAVOK 23/07 Q1014 NOSIG

EXPIRED METARs :
  • 171320Z 27008KT 240V330 9999 SCT045 23/10 Q1014 NOSIG
  • 171250Z 32006KT 220V010 9999 SCT044 23/12 Q1014 NOSIG
  • 171220Z 27008KT 220V310 9999 SCT038 22/11 Q1014 NOSIG
  • 171150Z 30006KT 240V010 9999 SCT039 21/12 Q1014 NOSIG
  • 171120Z 27008KT 240V320 9999 SCT039 21/12 Q1014 NOSIG

TAF TAF EDDT
Valid from the 17 at 12:00 until the 18 at 12:00 UTC


171100Z 1712/1812 30007KT 9999 FEW040
BECMG 1718/1720 09004KT
No reported NOTAMs for that airfield.



MET'MAP, your aeronautical weather chart ! - Copyright ORBIFLY December 2007 - Disclaimer

ORBIFLY MET'MAP TEAM :

Programming & Development : Alexandra Zaïnal
Concept & Development : Baudouin d'Aumeries
Co-Development & Prog : Marc-Olivier Méhu
Technical & hardware support : Manuel Goepfert

Contact : metmap@orbifly.com




SOURCES & CREDITS :

   NOAA